Login to view Products
 
Tuesday, January 22, 2019 (09:22 UTC)
Dubai International Airport
Last Updated: 22-Jan-2019 (09:21Z)
Wind Dir/Speed: SW at 08 kt
Temperature: 22.5°C
Rel. Humidity: 44 %
Pressure: 1016.1 hPa
Visibility: 10000 m
  • METAR OMDB 220900Z 27008KT 240V310 9999 SCT040 23/11 Q1016 NOSIG
  • TAF OMDB 220500Z 2206/2312 19007KT 9999 SCT040 BECMG 2206/2208 28010KT BECMG 2216/2218 18007KT PROB30 2300/2305 4000 HZ BECMG 2306/2308 30010KT=
D:\Input Parser\Destinations\Final\05\OMDBL06120500304927129.txt
1